Main page
METAR-TAF:

METAR-TAF

Airports :

Rimini, Italy

Federico Fellini International Airport

latitude: 44-02N, longitude: 012-37E, elevation: 12 m

Current weather observation

The report was made 34 minutes ago, at 22:15 UTC
Calm wind
Temperature 16°C
Humidity 94%
Pressure 1011 hPa
Visibility 10 km or more
no clouds below 1500 m and no cumulonimbus

METAR: LIPR 262215Z 00000KT CAVOK 16/15 Q1011

Time: 00:49 (22:49 UTC)

Forecast

The report was made 2 hours and 49 minutes ago, at 20:00 UTC
Forecast valid from 26 at 21 UTC to 27 at 06 UTC
Wind 5 kt from variable directions
Visibility 10 km or more
no clouds below 1500 m and no cumulonimbus

TAF: LIPR 262000Z 2621/2706 VRB05KT CAVOK

Weather observations and forecasts of more than 4000 airports (METAR and TAF reports).

The available stations are represented by yellow and red dots on the map.

Hover mouse over dot to see the name of the station.

Then click to see weather observations and forecasts.

To change the map : click on the green buttons with a black cross to zoom in, on the green button with a dash to zoom out, or on the green arrows for adjacent maps.


METAR-TAF: